Time;durP1;ratioP1;P1;durP2;ratioP2;P2;SDS_P1;SDS_P2;PMS_P1;PMS_P2;Temp;Humidity;BMP_temperature;BMP_pressure;BME280_temperature;BME280_humidity;BME280_pressure;Samples;Min_cycle;Max_cycle;Signal;HPM_P1;HPM_P2
2021/07/01 00:00:21;;;;;;;;;;;;;;;28.37;43.31;100076.42;1677680;85;20133;-77
2021/07/01 00:02:47;;;;;;;;;;;;;;;28.36;43.45;100077.53;1677829;85;20177;-77
2021/07/01 00:05:14;;;;;;;;;;;;;;;28.33;43.52;100067.30;1678098;85;20275;-77
2021/07/01 00:07:41;;;;;;;;;;;;;;;28.33;43.57;100064.55;1677688;85;20406;-77
2021/07/01 00:10:10;;;;;;;;;;;;;;;28.30;43.63;100054.13;1678090;85;20661;-77
2021/07/01 00:12:36;;;;;;;;;;;;;;;28.28;43.71;100050.81;1677859;85;20089;-77
2021/07/01 00:15:06;;;;;;;;;;;;;;;28.23;43.74;100033.51;1677702;85;20415;-76
2021/07/01 00:17:32;;;;;;;;;;;;;;;28.20;43.86;100033.52;1677405;85;20153;-76
2021/07/01 00:19:58;;;;;;;;;;;;;;;28.17;43.82;100025.84;1677771;85;20184;-77
2021/07/01 00:22:24;;;;;;;;;;;;;;;28.14;43.79;100023.65;1677987;85;20180;-77
2021/07/01 00:24:50;;;;;;;;;;;;;;;28.11;44.00;100022.83;1677832;85;20153;-77
2021/07/01 00:27:16;;;;;;;;;;;;;;;28.11;44.14;100026.14;1677958;85;20179;-77
2021/07/01 00:29:42;;;;;;;;;;;;;;;28.10;44.18;100024.50;1677670;85;20192;-77
2021/07/01 00:32:08;;;;;;;;;;;;;;;28.05;44.32;100027.55;1677579;85;20286;-76
2021/07/01 00:34:34;;;;;;;;;;;;;;;28.05;44.49;100029.48;1676631;85;20152;-75
2021/07/01 00:37:00;;;;;;;;;;;;;;;28.09;44.47;100020.93;1677895;85;20158;-76
2021/07/01 00:39:26;;;;;;;;;;;;;;;28.12;44.42;100019.00;1677416;85;20199;-76
2021/07/01 00:41:52;;;;;;;;;;;;;;;28.11;44.47;100022.83;1676619;85;20191;-76
2021/07/01 00:44:19;;;;;;;;;;;;;;;28.13;44.44;100020.63;1676336;85;20185;-75
2021/07/01 00:46:45;;;;;;;;;;;;;;;28.08;44.49;100018.47;1676145;85;20176;-76
2021/07/01 00:49:11;;;;;;;;;;;;;;;28.06;44.50;100022.31;1676344;85;20175;-77
2021/07/01 00:51:37;;;;;;;;;;;;;;;28.03;44.63;100020.70;1676556;85;20167;-78
2021/07/01 00:54:03;;;;;;;;;;;;;;;28.03;44.63;100026.21;1676216;85;20183;-78
2021/07/01 00:56:29;;;;;;;;;;;;;;;28.02;44.64;100036.41;1676624;85;20180;-78
2021/07/01 00:58:56;;;;;;;;;;;;;;;28.06;44.57;100068.30;1676245;85;20515;-76
2021/07/01 01:01:24;;;;;;;;;;;;;;;28.05;44.44;100075.73;1676998;85;20200;-77
2021/07/01 01:03:51;;;;;;;;;;;;;;;28.04;44.52;100057.58;1676470;85;20489;-77
2021/07/01 01:06:17;;;;;;;;;;;;;;;28.05;44.56;100048.20;1649562;85;20184;-77
2021/07/01 01:08:45;;;;;;;;;;;;;;;28.04;44.52;100073.28;1676759;85;20168;-76
2021/07/01 01:11:10;;;;;;;;;;;;;;;28.04;44.65;100070.52;1676338;85;20253;-76
2021/07/01 01:13:43;;;;;;;;;;;;;;;28.03;44.74;100068.89;1677771;85;20188;-77
2021/07/01 01:16:15;;;;;;;;;;;;;;;28.03;44.82;100082.09;1622228;85;20200;-77
2021/07/01 01:18:43;;;;;;;;;;;;;;;28.07;44.89;100087.86;1679150;85;20138;-77
2021/07/01 01:21:14;;;;;;;;;;;;;;;28.02;45.23;100090.62;1679617;85;20149;-77
2021/07/01 01:23:40;;;;;;;;;;;;;;;28.00;45.42;100094.22;1679406;85;20177;-77
2021/07/01 01:26:07;;;;;;;;;;;;;;;28.02;45.51;100101.63;1679178;85;20177;-75
2021/07/01 01:28:36;;;;;;;;;;;;;;;27.98;45.92;100094.52;1677267;85;20158;-76
2021/07/01 01:31:03;;;;;;;;;;;;;;;28.01;46.25;100098.61;1678980;85;20173;-75
2021/07/01 01:33:29;;;;;;;;;;;;;;;28.02;46.52;100098.34;1679270;85;20161;-76
2021/07/01 01:35:57;;;;;;;;;;;;;;;28.06;46.97;100087.57;1679178;85;20141;-76
2021/07/01 01:38:23;;;;;;;;;;;;;;;28.11;47.08;100083.97;1679349;85;20211;-76
2021/07/01 01:40:49;;;;;;;;;;;;;;;28.16;47.19;100083.41;1679125;85;20140;-76
2021/07/01 01:43:20;;;;;;;;;;;;;;;28.21;47.27;100095.77;1679275;85;20165;-76
2021/07/01 01:45:46;;;;;;;;;;;;;;;28.24;47.46;100107.58;1679230;85;20446;-76
2021/07/01 01:48:12;;;;;;;;;;;;;;;28.25;47.50;100107.87;1679571;85;20170;-76
2021/07/01 01:50:39;;;;;;;;;;;;;;;28.26;47.50;100090.23;1679201;85;20165;-76
2021/07/01 01:53:07;;;;;;;;;;;;;;;28.29;47.54;100081.37;1679705;85;20148;-76
2021/07/01 01:55:35;;;;;;;;;;;;;;;28.28;47.64;100072.03;1679293;85;20174;-76
2021/07/01 01:58:01;;;;;;;;;;;;;;;28.26;47.80;100066.81;1679461;85;20165;-76
2021/07/01 02:00:45;;;;;;;;;;;;;;;28.28;48.10;100073.41;1679296;85;20169;-76
2021/07/01 02:03:11;;;;;;;;;;;;;;;28.29;48.42;100075.86;1679599;85;20250;-76
2021/07/01 02:05:42;;;;;;;;;;;;;;;28.31;48.90;100076.98;1674344;85;20153;-76
2021/07/01 02:08:09;;;;;;;;;;;;;;;28.31;49.25;100071.47;1678972;85;20187;-76
2021/07/01 02:10:37;;;;;;;;;;;;;;;28.33;49.47;100070.62;1678026;84;20252;-77
2021/07/01 02:13:10;;;;;;;;;;;;;;;28.34;49.44;100068.13;1678376;85;20149;-77
2021/07/01 02:15:33;;;;;;;;;;;;;;;28.34;49.53;100075.02;1677566;85;20225;-76
2021/07/01 02:17:59;;;;;;;;;;;;;;;28.32;49.57;100079.44;1678551;85;20219;-79
2021/07/01 02:20:26;;;;;;;;;;;;;;;28.32;49.55;100071.17;1678073;85;20136;-77
2021/07/01 02:22:53;;;;;;;;;;;;;;;28.31;49.33;100066.78;1678293;85;20544;-76
2021/07/01 02:25:22;;;;;;;;;;;;;;;28.31;49.09;100057.14;1678123;85;20122;-78
2021/07/01 02:27:50;;;;;;;;;;;;;;;28.34;48.92;100055.73;1676136;85;20180;-77
2021/07/01 02:30:17;;;;;;;;;;;;;;;28.37;48.72;100055.75;1677995;85;20081;-76
2021/07/01 02:32:43;;;;;;;;;;;;;;;28.40;48.70;100051.06;1677911;85;20176;-77
2021/07/01 02:35:10;;;;;;;;;;;;;;;28.44;48.68;100044.69;1651595;85;20211;-76
2021/07/01 02:37:55;;;;;;;;;;;;;;;28.45;48.50;100020.16;1678147;85;20188;-76
2021/07/01 02:40:23;;;;;;;;;;;;;;;28.46;48.09;100019.04;1678073;85;20140;-76
2021/07/01 02:42:59;;;;;;;;;;;;;;;28.43;47.98;100000.32;1646192;85;20132;-76
2021/07/01 02:45:27;;;;;;;;;;;;;;;28.39;48.21;99995.15;1679390;85;20088;-77
2021/07/01 02:48:01;;;;;;;;;;;;;;;28.36;48.80;99994.89;1677123;85;20148;-76
2021/07/01 02:50:28;;;;;;;;;;;;;;;28.30;49.19;100019.69;1679645;85;20129;-76
2021/07/01 02:52:54;;;;;;;;;;;;;;;28.30;49.72;100036.22;1679774;85;20141;-77
2021/07/01 02:55:22;;;;;;;;;;;;;;;28.35;50.17;100038.15;1679597;85;20145;-77
2021/07/01 02:57:49;;;;;;;;;;;;;;;28.38;50.09;100025.72;1679173;85;20133;-76
2021/07/01 03:00:16;;;;;;;;;;;;;;;28.41;49.97;100018.27;1679423;85;20132;-77
2021/07/01 03:02:44;;;;;;;;;;;;;;;28.45;49.51;100015.20;1679091;85;20146;-77
2021/07/01 03:05:15;;;;;;;;;;;;;;;28.44;49.44;100010.81;1622560;85;20129;-77
2021/07/01 03:07:41;;;;;;;;;;;;;;;28.43;49.37;99996.75;1679169;85;20149;-77
2021/07/01 03:10:09;;;;;;;;;;;;;;;28.43;49.39;99991.23;1652212;85;20299;-76
2021/07/01 03:12:37;;;;;;;;;;;;;;;28.42;49.51;99990.98;1673366;85;20215;-76
2021/07/01 03:15:05;;;;;;;;;;;;;;;28.42;49.67;99984.09;1678739;85;20185;-77
2021/07/01 03:17:32;;;;;;;;;;;;;;;28.41;49.77;99979.70;1679198;85;20185;-77
2021/07/01 03:19:58;;;;;;;;;;;;;;;28.41;49.66;99976.39;1679339;85;20266;-77
2021/07/01 03:22:28;;;;;;;;;;;;;;;28.44;49.63;99977.75;1625870;85;20220;-77
2021/07/01 03:24:55;;;;;;;;;;;;;;;28.45;49.69;99979.39;1679325;85;20181;-76
2021/07/01 03:27:22;;;;;;;;;;;;;;;28.47;50.14;99983.48;1679092;85;20169;-76
2021/07/01 03:29:48;;;;;;;;;;;;;;;28.51;50.64;99978.23;1679171;85;20240;-76
2021/07/01 03:32:16;;;;;;;;;;;;;;;28.51;50.80;99969.41;1678870;85;20131;-77
2021/07/01 03:34:42;;;;;;;;;;;;;;;28.53;50.66;99969.95;1678888;85;20497;-77
2021/07/01 03:37:08;;;;;;;;;;;;;;;28.56;50.48;99972.11;1678327;85;20235;-77
2021/07/01 03:39:39;;;;;;;;;;;;;;;28.60;50.45;99970.98;1651895;84;20515;-77
2021/07/01 03:42:07;;;;;;;;;;;;;;;28.63;50.59;99965.46;1677890;84;20217;-77
2021/07/01 03:44:33;;;;;;;;;;;;;;;28.64;50.82;99963.78;1678015;85;20211;-77
2021/07/01 03:46:59;;;;;;;;;;;;;;;28.64;50.97;99959.65;1678125;85;20706;-76
2021/07/01 03:49:26;;;;;;;;;;;;;;;28.65;51.11;99961.84;1678914;85;20176;-77
2021/07/01 03:51:57;;;;;;;;;;;;;;;28.64;51.28;99967.91;1676876;85;20525;-76
2021/07/01 03:54:35;;;;;;;;;;;;;;;28.63;51.40;99969.03;1645005;85;20189;-76
2021/07/01 03:57:03;;;;;;;;;;;;;;;28.64;51.56;99976.18;1687717;84;20186;-77
2021/07/01 03:59:32;;;;;;;;;;;;;;;28.66;51.42;99975.36;1687077;84;20423;-76
2021/07/01 04:02:16;;;;;;;;;;;;;;;28.72;51.27;99978.31;1688256;85;20562;-77
2021/07/01 04:04:43;;;;;;;;;;;;;;;28.72;51.47;99978.31;1689224;85;20144;-77
2021/07/01 04:07:09;;;;;;;;;;;;;;;28.71;51.55;99983.57;1668418;86;20138;-77
2021/07/01 04:09:39;;;;;;;;;;;;;;;28.69;51.52;99980.27;1664319;86;20461;-77
2021/07/01 04:12:20;;;;;;;;;;;;;;;28.68;51.53;99983.32;1659571;86;20248;-77
2021/07/01 04:14:56;;;;;;;;;;;;;;;28.64;51.76;99977.56;1672824;85;20196;-77
2021/07/01 04:17:30;;;;;;;;;;;;;;;28.59;52.12;99977.61;1664201;86;20457;-77
2021/07/01 04:20:14;;;;;;;;;;;;;;;28.55;52.30;99986.19;1661308;86;20189;-76
2021/07/01 04:22:58;;;;;;;;;;;;;;;28.50;52.49;99987.61;1678929;85;20218;-76
2021/07/01 04:25:26;;;;;;;;;;;;;;;28.50;52.57;99980.72;1676668;84;20223;-77
2021/07/01 04:27:52;;;;;;;;;;;;;;;28.49;52.49;99973.58;1675936;85;20193;-77
2021/07/01 04:30:18;;;;;;;;;;;;;;;28.47;52.45;99971.64;1662032;86;20219;-76
2021/07/01 04:32:46;;;;;;;;;;;;;;;28.47;52.34;99971.64;1651396;85;20546;-78
2021/07/01 04:35:13;;;;;;;;;;;;;;;28.43;52.39;99970.58;1678712;85;20449;-78
2021/07/01 04:37:40;;;;;;;;;;;;;;;28.42;52.49;99968.94;1663125;85;20158;-79
2021/07/01 04:40:09;;;;;;;;;;;;;;;28.40;52.40;99965.66;1680328;84;20127;-78
2021/07/01 04:42:39;;;;;;;;;;;;;;;28.40;52.57;99966.48;1681262;84;20172;-78
2021/07/01 04:45:07;;;;;;;;;;;;;;;28.42;52.73;99957.36;1676838;85;20178;-78
2021/07/01 04:47:34;;;;;;;;;;;;;;;28.46;52.89;99957.61;1678113;85;20174;-78
2021/07/01 04:50:05;;;;;;;;;;;;;;;28.48;52.90;99958.98;1677140;85;20489;-78
2021/07/01 04:52:41;;;;;;;;;;;;;;;28.50;53.00;99965.01;1677797;85;20312;-78
2021/07/01 04:55:26;;;;;;;;;;;;;;;28.49;53.03;99966.69;1677210;85;20171;-78
2021/07/01 04:58:06;;;;;;;;;;;;;;;28.49;53.00;99961.17;1649800;87;20221;-78
2021/07/01 05:00:35;;;;;;;;;;;;;;;28.50;53.27;99968.33;1674255;84;20192;-79
2021/07/01 05:03:09;;;;;;;;;;;;;;;28.50;53.05;99983.48;1647827;84;20208;-77
2021/07/01 05:05:36;;;;;;;;;;;;;;;28.49;53.01;99983.22;1683659;84;20212;-76
2021/07/01 05:08:03;;;;;;;;;;;;;;;28.50;53.37;99986.23;1676078;85;20192;-76
2021/07/01 05:10:30;;;;;;;;;;;;;;;28.54;53.35;99998.33;1651011;85;20184;-78
2021/07/01 05:13:02;;;;;;;;;;;;;;;28.60;53.50;100002.67;1682780;84;20169;-78
2021/07/01 05:15:28;;;;;;;;;;;;;;;28.71;53.67;100001.48;1649855;85;20124;-78
2021/07/01 05:17:57;;;;;;;;;;;;;;;28.79;53.77;100012.42;1687500;83;20160;-78
2021/07/01 05:20:23;;;;;;;;;;;;;;;28.85;53.81;100013.22;1660809;85;20226;-78
2021/07/01 05:23:08;;;;;;;;;;;;;;;28.91;53.31;100022.52;1676995;84;20151;-77
2021/07/01 05:25:42;;;;;;;;;;;;;;;28.90;53.24;100023.63;1657182;84;20178;-77
2021/07/01 05:28:10;;;;;;;;;;;;;;;28.83;52.52;100025.33;1644429;85;20150;-77
2021/07/01 05:30:54;;;;;;;;;;;;;;;28.76;52.42;100039.20;1676097;84;20223;-78
2021/07/01 05:33:40;;;;;;;;;;;;;;;28.68;52.67;100040.64;1632942;86;20163;-77
2021/07/01 05:36:06;;;;;;;;;;;;;;;28.63;52.92;100046.75;1617386;87;20161;-77
2021/07/01 05:38:33;;;;;;;;;;;;;;;28.63;53.06;100044.00;1649696;85;20155;-76
2021/07/01 05:40:59;;;;;;;;;;;;;;;28.66;53.06;100049.77;1666106;84;20208;-77
2021/07/01 05:43:25;;;;;;;;;;;;;;;28.73;52.75;100057.69;1666853;84;20163;-77
2021/07/01 05:45:52;;;;;;;;;;;;;;;28.78;52.69;100059.84;1671324;84;20528;-77
2021/07/01 05:48:22;;;;;;;;;;;;;;;28.85;52.26;100059.52;1649397;85;20145;-77
2021/07/01 05:51:01;;;;;;;;;;;;;;;28.93;52.25;100063.56;1673587;84;20566;-77
2021/07/01 05:53:28;;;;;;;;;;;;;;;29.00;52.22;100068.23;1672461;85;20212;-77
2021/07/01 05:55:51;;;;;;;;;;;;;;;29.06;52.05;100079.47;1672427;84;20162;-77
2021/07/01 05:58:17;;;;;;;;;;;;;;;29.07;51.64;100081.14;1681345;84;21072;-77
2021/07/01 06:00:43;;;;;;;;;;;;;;;29.12;51.83;100087.16;1685047;84;20294;-76
2021/07/01 06:03:09;;;;;;;;;;;;;;;29.16;51.79;100099.23;1673396;85;20179;-76
2021/07/01 06:05:37;;;;;;;;;;;;;;;29.21;51.40;100114.38;1671817;84;20235;-79
2021/07/01 06:08:23;;;;;;;;;;;;;;;29.24;51.34;100128.39;1672907;85;20167;-77
2021/07/01 06:10:51;;;;;;;;;;;;;;;29.24;51.60;100129.77;1674799;84;20228;-78
2021/07/01 06:13:22;;;;;;;;;;;;;;;29.24;51.62;100135.84;1674616;84;20201;-78
2021/07/01 06:15:51;;;;;;;;;;;;;;;29.25;51.38;100139.72;1678328;84;20168;-79
2021/07/01 06:18:19;;;;;;;;;;;;;;;29.27;51.16;100145.75;1682855;84;20158;-78
2021/07/01 06:20:45;;;;;;;;;;;;;;;29.30;51.02;100132.77;1679863;84;20138;-78
2021/07/01 06:23:29;;;;;;;;;;;;;;;29.33;51.05;100128.59;1672310;84;20158;-78
2021/07/01 06:25:57;;;;;;;;;;;;;;;29.35;51.04;100129.14;1654528;84;20150;-78
2021/07/01 06:28:23;;;;;;;;;;;;;;;29.35;50.45;100133.27;1674452;84;20258;-78
2021/07/01 06:30:49;;;;;;;;;;;;;;;29.37;50.85;100137.11;1675216;84;20208;-77
2021/07/01 06:33:17;;;;;;;;;;;;;;;29.38;50.93;100131.29;1627328;84;20469;-77
2021/07/01 06:35:51;;;;;;;;;;;;;;;29.40;50.61;100126.88;1673979;85;20137;-78
2021/07/01 06:38:22;;;;;;;;;;;;;;;29.41;50.34;100125.77;1675681;84;20209;-76
2021/07/01 06:41:07;;;;;;;;;;;;;;;29.42;50.06;100129.59;1673830;84;20486;-77
2021/07/01 06:43:37;;;;;;;;;;;;;;;29.40;50.10;100122.19;1626005;84;20506;-78
2021/07/01 06:46:30;;;;;;;;;;;;;;;29.36;50.47;100120.30;1616669;87;20581;-79
2021/07/01 06:49:10;;;;;;;;;;;;;;;29.34;50.27;100119.19;1614364;87;20203;-78
2021/07/01 06:51:55;;;;;;;;;;;;;;;29.35;50.14;100115.91;1653398;84;20144;-78
2021/07/01 06:54:39;;;;;;;;;;;;;;;29.37;49.96;100121.38;1671566;84;20200;-77
2021/07/01 06:57:16;;;;;;;;;;;;;;;29.42;50.16;100113.61;1667678;85;20192;-77
2021/07/01 06:59:42;;;;;;;;;;;;;;;29.47;49.86;100103.33;1679405;84;20209;-78
2021/07/01 07:02:08;;;;;;;;;;;;;;;29.50;49.88;100104.13;1647920;84;20156;-78
2021/07/01 07:04:34;;;;;;;;;;;;;;;29.51;49.98;100102.19;1651088;85;20149;-78
2021/07/01 07:07:03;;;;;;;;;;;;;;;29.50;49.86;100110.22;1672695;84;20172;-78
2021/07/01 07:09:29;;;;;;;;;;;;;;;29.50;49.80;100099.17;1675432;84;20152;-78
2021/07/01 07:11:55;;;;;;;;;;;;;;;29.51;49.71;100097.48;1682233;84;20255;-77
2021/07/01 07:14:21;;;;;;;;;;;;;;;29.51;49.57;100103.57;1666728;84;20146;-77
2021/07/01 07:16:47;;;;;;;;;;;;;;;29.51;49.75;100105.77;1659465;85;20216;-78
2021/07/01 07:19:12;;;;;;;;;;;;;;;29.53;49.51;100109.64;1676227;84;20238;-77
2021/07/01 07:21:44;;;;;;;;;;;;;;;29.54;49.43;100104.38;1682189;83;20215;-77
2021/07/01 07:24:13;;;;;;;;;;;;;;;29.54;49.20;100103.81;1664292;84;20155;-78
2021/07/01 07:26:39;;;;;;;;;;;;;;;29.52;49.18;100099.16;1654596;85;20206;-77
2021/07/01 07:29:06;;;;;;;;;;;;;;;29.53;49.15;100102.18;1689789;83;20699;-77
2021/07/01 07:31:32;;;;;;;;;;;;;;;29.53;49.21;100104.94;1662562;84;20711;-78
2021/07/01 07:34:00;;;;;;;;;;;;;;;29.53;49.17;100099.42;1679755;83;20198;-77
2021/07/01 07:36:27;;;;;;;;;;;;;;;29.55;49.28;100097.77;1666477;84;20239;-76
2021/07/01 07:38:54;;;;;;;;;;;;;;;29.56;49.25;100082.28;1656217;85;20180;-78
2021/07/01 07:41:20;;;;;;;;;;;;;;;29.58;49.10;100088.91;1652594;85;20152;-78
2021/07/01 07:43:55;;;;;;;;;;;;;;;29.62;49.05;100083.63;1653727;85;20232;-78
2021/07/01 07:46:24;;;;;;;;;;;;;;;29.67;48.74;100084.39;1673718;84;20494;-78
2021/07/01 07:48:52;;;;;;;;;;;;;;;29.72;48.60;100085.70;1680494;84;20146;-77
2021/07/01 07:51:20;;;;;;;;;;;;;;;29.79;48.65;100082.01;1675027;84;20209;-77
2021/07/01 07:53:47;;;;;;;;;;;;;;;29.85;48.33;100083.35;1657913;85;20110;-76
2021/07/01 07:56:15;;;;;;;;;;;;;;;29.88;47.95;100074.45;1673989;84;20833;-78
2021/07/01 07:58:43;;;;;;;;;;;;;;;29.92;47.98;100074.95;1661615;85;20760;-78
2021/07/01 08:01:09;;;;;;;;;;;;;;;30.05;47.97;100072.02;1665560;85;20217;-77
2021/07/01 08:03:37;;;;;;;;;;;;;;;30.16;48.14;100068.05;1675220;84;20170;-77
2021/07/01 08:06:05;;;;;;;;;;;;;;;30.34;47.84;100074.67;1653864;85;20157;-78
2021/07/01 08:08:33;;;;;;;;;;;;;;;30.51;47.60;100073.58;1650478;85;20171;-77
2021/07/01 08:11:00;;;;;;;;;;;;;;;30.69;47.46;100073.30;1659900;84;20174;-77
2021/07/01 08:13:29;;;;;;;;;;;;;;;30.86;46.96;100070.02;1662397;84;20192;-77
2021/07/01 08:15:57;;;;;;;;;;;;;;;31.02;46.66;100066.41;1658513;84;20157;-76
2021/07/01 08:18:37;;;;;;;;;;;;;;;31.12;45.57;100064.05;1673549;83;20219;-78
2021/07/01 08:21:01;;;;;;;;;;;;;;;31.20;45.15;100061.94;1675836;84;20236;-77
2021/07/01 08:23:27;;;;;;;;;;;;;;;31.24;45.43;100059.63;1678925;84;20239;-77
2021/07/01 08:25:53;;;;;;;;;;;;;;;31.29;46.17;100062.90;1682192;83;20170;-77
2021/07/01 08:28:21;;;;;;;;;;;;;;;31.34;46.35;100068.36;1684493;83;20175;-77
2021/07/01 08:30:48;;;;;;;;;;;;;;;31.38;46.31;100065.78;1671582;84;20171;-77
2021/07/01 08:33:18;;;;;;;;;;;;;;;31.44;46.21;100075.64;1673475;84;20184;-78
2021/07/01 08:35:44;;;;;;;;;;;;;;;31.49;45.09;100072.77;1674842;84;20184;-78
2021/07/01 08:38:09;;;;;;;;;;;;;;;31.52;45.62;100074.91;1678432;84;20187;-77
2021/07/01 08:40:38;;;;;;;;;;;;;;;31.53;46.17;100077.39;1653720;84;20185;-78
2021/07/01 08:43:05;;;;;;;;;;;;;;;31.57;46.31;100081.75;1636129;85;20215;-77
2021/07/01 08:45:50;;;;;;;;;;;;;;;31.65;46.48;100088.50;1673482;84;20188;-78
2021/07/01 08:48:21;;;;;;;;;;;;;;;31.71;46.41;100085.34;1638643;85;20449;-77
2021/07/01 08:50:53;;;;;;;;;;;;;;;31.76;46.52;100088.56;1679310;83;20667;-77
2021/07/01 08:53:43;;;;;;;;;;;;;;;31.78;46.18;100087.11;1657840;85;20137;-78
2021/07/01 08:56:12;;;;;;;;;;;;;;;31.82;46.21;100087.33;1678986;84;20560;-77
2021/07/01 08:58:42;;;;;;;;;;;;;;;31.87;45.97;100086.42;1672654;84;20148;-77
2021/07/01 09:01:16;;;;;;;;;;;;;;;31.91;45.20;100095.77;1672805;84;20148;-78
2021/07/01 09:03:43;;;;;;;;;;;;;;;31.89;45.52;100088.34;1675615;84;20613;-78
2021/07/01 09:06:09;;;;;;;;;;;;;;;31.90;45.47;100091.36;1665516;84;20223;-78
2021/07/01 09:08:35;;;;;;;;;;;;;;;31.89;44.88;100086.95;1670960;84;20184;-78
2021/07/01 09:11:03;;;;;;;;;;;;;;;31.86;45.33;100086.99;1674740;84;20156;-77
2021/07/01 09:13:30;;;;;;;;;;;;;;;31.89;45.66;100085.00;1664794;85;20171;-78
2021/07/01 09:15:57;;;;;;;;;;;;;;;31.97;45.86;100082.86;1662225;84;20536;-78
2021/07/01 09:18:23;;;;;;;;;;;;;;;32.03;45.80;100078.88;1672482;84;20288;-79
2021/07/01 09:20:49;;;;;;;;;;;;;;;32.12;45.97;100069.83;1673164;84;20227;-78
2021/07/01 09:23:15;;;;;;;;;;;;;;;32.23;46.10;100074.00;1636907;85;20197;-78
2021/07/01 09:25:41;;;;;;;;;;;;;;;32.33;45.58;100076.53;1637785;85;20192;-78
2021/07/01 09:28:07;;;;;;;;;;;;;;;32.41;45.12;100073.05;1658828;85;20172;-78
2021/07/01 09:30:35;;;;;;;;;;;;;;;32.48;44.59;100067.09;1657691;85;20208;-78
2021/07/01 09:33:05;;;;;;;;;;;;;;;32.51;44.48;100065.05;1675685;84;20192;-78
2021/07/01 09:35:33;;;;;;;;;;;;;;;32.52;45.20;100066.14;1675024;84;20184;-78
2021/07/01 09:38:00;;;;;;;;;;;;;;;32.51;45.06;100059.50;1660369;85;20161;-77
2021/07/01 09:40:28;;;;;;;;;;;;;;;32.47;44.84;100057.92;1673600;84;20176;-77
2021/07/01 09:42:59;;;;;;;;;;;;;;;32.42;44.82;100053.07;1670842;84;20486;-78
2021/07/01 09:45:32;;;;;;;;;;;;;;;32.34;44.96;100047.70;1645898;85;20815;-77
2021/07/01 09:48:09;;;;;;;;;;;;;;;32.23;45.25;100047.10;1675768;84;20328;-77
2021/07/01 09:50:38;;;;;;;;;;;;;;;32.15;45.22;100040.91;1674925;84;20473;-77
2021/07/01 09:53:04;;;;;;;;;;;;;;;32.06;45.37;100037.23;1672758;84;20177;-77
2021/07/01 09:55:31;;;;;;;;;;;;;;;31.99;45.61;100036.86;1673757;84;20779;-78
2021/07/01 09:58:00;;;;;;;;;;;;;;;31.93;45.71;100036.70;1673631;85;20192;-77
2021/07/01 10:00:31;;;;;;;;;;;;;;;31.88;45.92;100034.86;1673459;84;20184;-77
2021/07/01 10:03:08;;;;;;;;;;;;;;;31.84;46.46;100035.26;1646823;85;20211;-76
2021/07/01 10:05:35;;;;;;;;;;;;;;;31.77;46.53;100022.35;1677301;84;20811;-76
2021/07/01 10:08:01;;;;;;;;;;;;;;;31.69;46.78;100015.58;1674823;84;20211;-77
2021/07/01 10:10:29;;;;;;;;;;;;;;;31.65;47.02;100019.28;1672979;84;20225;-77
2021/07/01 10:12:58;;;;;;;;;;;;;;;31.58;47.19;100026.63;1681456;83;20144;-77
2021/07/01 10:15:32;;;;;;;;;;;;;;;31.55;47.30;100025.86;1654038;85;20417;-78
2021/07/01 10:18:15;;;;;;;;;;;;;;;31.54;47.18;100010.37;1675491;84;20158;-78
2021/07/01 10:20:46;;;;;;;;;;;;;;;31.54;47.22;100004.84;1676312;84;20209;-77
2021/07/01 10:23:33;;;;;;;;;;;;;;;31.50;47.22;100006.59;1680876;84;20191;-77
2021/07/01 10:26:02;;;;;;;;;;;;;;;31.44;47.30;100003.11;1673553;84;20196;-77
2021/07/01 10:28:31;;;;;;;;;;;;;;;31.37;47.42;100001.88;1672238;84;20162;-77
2021/07/01 10:31:01;;;;;;;;;;;;;;;31.33;47.59;100004.43;1678125;84;20203;-78
2021/07/01 10:33:32;;;;;;;;;;;;;;;31.32;47.58;99996.70;1678666;84;20178;-78
2021/07/01 10:36:00;;;;;;;;;;;;;;;31.29;47.52;99993.15;1675276;84;20261;-77
2021/07/01 10:38:25;;;;;;;;;;;;;;;31.26;47.49;99998.47;1675644;84;20191;-78
2021/07/01 10:40:54;;;;;;;;;;;;;;;31.26;47.76;100002.63;1654816;84;20148;-78
2021/07/01 10:43:27;;;;;;;;;;;;;;;31.26;48.01;100002.63;1684583;84;20250;-78
2021/07/01 10:46:02;;;;;;;;;;;;;;;31.27;48.09;99995.95;1650722;84;20486;-78
2021/07/01 10:48:33;;;;;;;;;;;;;;;31.29;48.18;100010.32;1660642;83;20166;-78
2021/07/01 10:51:08;;;;;;;;;;;;;;;31.26;48.02;100006.20;1672041;84;20146;-77
2021/07/01 10:53:38;;;;;;;;;;;;;;;31.28;48.19;100001.77;1671311;84;20172;-77
2021/07/01 10:56:20;;;;;;;;;;;;;;;31.24;48.20;99998.76;1661701;85;20192;-77
2021/07/01 10:58:54;;;;;;;;;;;;;;;31.24;48.39;99999.33;1675319;84;20188;-78
2021/07/01 11:01:30;;;;;;;;;;;;;;;31.23;48.21;99995.74;1663775;85;20198;-77
2021/07/01 11:04:06;;;;;;;;;;;;;;;31.22;48.35;99984.98;1680988;83;20479;-78
2021/07/01 11:06:32;;;;;;;;;;;;;;;31.23;48.40;99975.55;1647229;85;20213;-77
2021/07/01 11:08:57;;;;;;;;;;;;;;;31.26;48.41;99978.53;1667429;84;20187;-77
2021/07/01 11:11:29;;;;;;;;;;;;;;;31.24;48.14;99969.70;1651679;85;20140;-79
2021/07/01 11:13:55;;;;;;;;;;;;;;;31.20;48.33;99976.98;1686215;84;20457;-78
2021/07/01 11:16:34;;;;;;;;;;;;;;;31.15;48.56;99971.55;1680729;84;20153;-78
2021/07/01 11:19:02;;;;;;;;;;;;;;;31.13;48.54;99969.66;1685455;84;20195;-77
2021/07/01 11:21:28;;;;;;;;;;;;;;;31.12;48.87;99966.65;1684080;84;20230;-79
2021/07/01 11:24:10;;;;;;;;;;;;;;;31.14;48.68;99960.23;1686231;84;20206;-79
2021/07/01 11:26:37;;;;;;;;;;;;;;;31.14;48.95;99949.16;1662870;84;20172;-78
2021/07/01 11:29:08;;;;;;;;;;;;;;;31.15;49.00;99968.78;1649459;85;21220;-78
2021/07/01 11:31:40;;;;;;;;;;;;;;;31.15;48.72;99958.28;1691318;83;20159;-78
2021/07/01 11:34:08;;;;;;;;;;;;;;;31.15;48.92;99945.27;1673030;84;20230;-78
2021/07/01 11:36:35;;;;;;;;;;;;;;;31.16;48.95;99951.08;1664465;84;20150;-79
2021/07/01 11:39:18;;;;;;;;;;;;;;;31.13;48.97;99944.77;1683610;84;20156;-78
2021/07/01 11:41:44;;;;;;;;;;;;;;;31.14;49.15;99945.02;1623079;85;20196;-78
2021/07/01 11:44:12;;;;;;;;;;;;;;;31.18;49.19;99936.36;1674446;84;20656;-78
2021/07/01 11:46:40;;;;;;;;;;;;;;;31.21;48.94;99934.94;1680239;84;20151;-78
2021/07/01 11:49:11;;;;;;;;;;;;;;;31.23;48.98;99932.10;1682763;84;20143;-76
2021/07/01 11:51:37;;;;;;;;;;;;;;;31.25;49.09;99940.93;1686617;83;20191;-76
2021/07/01 11:54:05;;;;;;;;;;;;;;;31.26;48.92;99943.13;1686133;84;20132;-78
2021/07/01 11:56:54;;;;;;;;;;;;;;;31.22;49.07;99935.19;1655140;85;20146;-77
2021/07/01 11:59:01;;;;;;;;;;;;;;;31.18;49.19;99927.25;1671217;84;20152;-78
2021/07/01 12:01:27;;;;;;;;;;;;;;;31.20;49.18;99927.17;1677802;84;20212;-77
2021/07/01 12:03:52;;;;;;;;;;;;;;;31.22;49.32;99929.66;1678147;84;20158;-77
2021/07/01 12:06:28;;;;;;;;;;;;;;;31.25;49.36;99922.95;1657111;85;20160;-78
2021/07/01 12:08:54;;;;;;;;;;;;;;;31.27;49.41;99928.16;1670743;84;20972;-77
2021/07/01 12:11:20;;;;;;;;;;;;;;;31.26;49.45;99916.28;1687154;83;20172;-77
2021/07/01 12:13:48;;;;;;;;;;;;;;;31.27;49.33;99919.32;1682771;83;20191;-76
2021/07/01 12:16:19;;;;;;;;;;;;;;;31.27;49.37;99915.17;1666109;84;20196;-77
2021/07/01 12:18:55;;;;;;;;;;;;;;;31.25;49.51;99920.18;1684492;83;20155;-78
2021/07/01 12:21:28;;;;;;;;;;;;;;;31.21;49.35;99924.69;1660626;84;20479;-77
2021/07/01 12:23:57;;;;;;;;;;;;;;;31.18;49.48;99924.48;1663478;85;20165;-77
2021/07/01 12:26:39;;;;;;;;;;;;;;;31.16;49.43;99917.03;1663672;85;20185;-75
2021/07/01 12:29:08;;;;;;;;;;;;;;;31.18;49.45;99914.23;1668275;85;20201;-77
2021/07/01 12:31:37;;;;;;;;;;;;;;;31.12;49.59;99913.27;1666119;85;20174;-77
2021/07/01 12:34:19;;;;;;;;;;;;;;;31.10;49.78;99917.70;1651940;85;20332;-76
2021/07/01 12:37:00;;;;;;;;;;;;;;;31.09;49.77;99922.99;1680729;83;20691;-76
2021/07/01 12:39:27;;;;;;;;;;;;;;;31.06;50.09;99922.22;1662426;84;20377;-76
2021/07/01 12:41:55;;;;;;;;;;;;;;;31.02;50.36;99919.27;1646029;84;20199;-76
2021/07/01 12:44:32;;;;;;;;;;;;;;;31.03;50.21;99931.15;1665307;84;21014;-76
2021/07/01 12:47:04;;;;;;;;;;;;;;;31.02;50.47;99921.19;1685845;83;20537;-77
2021/07/01 12:49:35;;;;;;;;;;;;;;;31.02;50.54;99923.95;1677679;85;20186;-77
2021/07/01 12:52:07;;;;;;;;;;;;;;;31.02;50.61;99913.73;1676594;84;20183;-77